KPTN/PTN METAR and TAF weather

Enter ICAO airport designator
Station Type Date Time Source
KPTN METAR 2019/06/20 07:56 UTC NOAA

KPTN 200756Z AUTO 21006KT 10SM CLR 27/26 A2989 RMK AO2 SLP122 T02670261


Station Type Date Time Source
KPTN Decoded METAR 2019/06/20 07:56 UTC NOAA

Patterson Memorial, LA, United States (KPTN) 29-43N 091-20W
Jun 20, 2019 - 03:56 AM EDT / 2019.06.20 0756 UTC
Wind: from the SSW (210 degrees) at 7 MPH (6 KT):0
Visibility: 10 mile(s):0
Sky conditions: clear
Temperature: 80.1 F (26.7 C)
Dew Point: 79.0 F (26.1 C)
Relative Humidity: 96%
Pressure (altimeter): 29.89 in. Hg (1012 hPa)
ob: KPTN 200756Z AUTO 21006KT 10SM CLR 27/26 A2989 RMK AO2 SLP122 T02670261
cycle: 8

Station Type Date Time Source
KPTN TAF UTC NOAA

Error!

Example: see airport list